SWA4423 KLAS-KBUR
Flight info
| Callsign | SWA4423 |
|---|---|
| Flight time | 0h 47m |
| Altitude | 26000 |
| Route | RADYR2 SLVRR KREME JANNY5 |
| Aircraft | B737/M-SDE2E3FGHIRWXY/LB1 |
Departure
| Time | 2026-05-04 01:49 |
|---|---|
| Airport | Harry Reid International Airport (KLAS) |
Arrival
| Time | 2026-05-04 02:37 |
|---|---|
| Airport | Hollywood Burbank/Bob Hope Airport (KBUR) |
| Time | Latitude | Longitude | Altitude | Speed | Heading |
|---|---|---|---|---|---|
| 2026-05-04 01:20 | 36.08230 | -115.15055 | 2115 ft | 0 kts | 337° |
| 2026-05-04 01:39 | 36.08222 | -115.15051 | 2115 ft | 4 kts | 339° |
| 2026-05-04 01:39 | 36.08197 | -115.15042 | 2116 ft | 4 kts | 352° |
| 2026-05-04 01:39 | 36.08170 | -115.15040 | 2115 ft | 4 kts | 8° |
| 2026-05-04 01:40 | 36.08145 | -115.15049 | 2115 ft | 4 kts | 29° |
| 2026-05-04 01:40 | 36.08124 | -115.15069 | 2118 ft | 4 kts | 51° |
| 2026-05-04 01:40 | 36.08110 | -115.15096 | 2118 ft | 4 kts | 72° |
| 2026-05-04 01:40 | 36.08106 | -115.15119 | 2119 ft | 0 kts | 90° |
| 2026-05-04 01:43 | 36.08106 | -115.15110 | 2119 ft | 3 kts | 91° |
| 2026-05-04 01:43 | 36.08105 | -115.15068 | 2119 ft | 7 kts | 92° |
| 2026-05-04 01:43 | 36.08104 | -115.14995 | 2117 ft | 10 kts | 90° |
| 2026-05-04 01:43 | 36.08085 | -115.14914 | 2114 ft | 10 kts | 135° |
| 2026-05-04 01:44 | 36.08043 | -115.14887 | 2115 ft | 10 kts | 156° |
| 2026-05-04 01:44 | 36.07981 | -115.14852 | 2115 ft | 10 kts | 156° |
| 2026-05-04 01:44 | 36.07918 | -115.14820 | 2115 ft | 10 kts | 164° |
| 2026-05-04 01:44 | 36.07857 | -115.14790 | 2117 ft | 11 kts | 142° |
| 2026-05-04 01:45 | 36.07794 | -115.14705 | 2111 ft | 16 kts | 123° |
| 2026-05-04 01:45 | 36.07768 | -115.14549 | 2106 ft | 21 kts | 94° |
| 2026-05-04 01:45 | 36.07755 | -115.14165 | 2095 ft | 24 kts | 90° |
| 2026-05-04 01:46 | 36.07754 | -115.13971 | 2093 ft | 23 kts | 90° |
| 2026-05-04 01:46 | 36.07754 | -115.13780 | 2090 ft | 22 kts | 90° |
| 2026-05-04 01:46 | 36.07754 | -115.13594 | 2084 ft | 21 kts | 90° |
| 2026-05-04 01:46 | 36.07754 | -115.13414 | 2081 ft | 21 kts | 90° |
| 2026-05-04 01:47 | 36.07754 | -115.13235 | 2073 ft | 22 kts | 90° |
| 2026-05-04 01:47 | 36.07753 | -115.13034 | 2065 ft | 25 kts | 90° |
| 2026-05-04 01:47 | 36.07753 | -115.12814 | 2057 ft | 27 kts | 90° |
| 2026-05-04 01:47 | 36.07754 | -115.12575 | 2048 ft | 28 kts | 90° |
| 2026-05-04 01:48 | 36.07753 | -115.12345 | 2044 ft | 25 kts | 90° |
| 2026-05-04 01:48 | 36.07752 | -115.12170 | 2039 ft | 15 kts | 99° |
| 2026-05-04 01:48 | 36.07673 | -115.12118 | 2042 ft | 15 kts | 196° |
| 2026-05-04 01:48 | 36.07638 | -115.12222 | 2045 ft | 15 kts | 271° |
| 2026-05-04 01:49 | 36.07639 | -115.12544 | 2050 ft | 71 kts | 269° |
| 2026-05-04 01:49 | 36.07640 | -115.13447 | 2076 ft | 136 kts | 270° |
| 2026-05-04 01:49 | 36.07693 | -115.14760 | 2477 ft | 153 kts | 269° |
| 2026-05-04 01:49 | 36.07752 | -115.16057 | 3302 ft | 152 kts | 262° |
| 2026-05-04 01:50 | 36.07750 | -115.17399 | 3939 ft | 160 kts | 262° |
| 2026-05-04 01:50 | 36.07741 | -115.18930 | 4283 ft | 195 kts | 263° |
| 2026-05-04 01:50 | 36.07664 | -115.20731 | 4552 ft | 224 kts | 257° |
| 2026-05-04 01:50 | 36.07389 | -115.22706 | 5130 ft | 236 kts | 255° |
| 2026-05-04 01:51 | 36.06944 | -115.24628 | 5939 ft | 238 kts | 237° |
| 2026-05-04 01:51 | 36.05863 | -115.26156 | 6830 ft | 242 kts | 215° |
| 2026-05-04 01:51 | 36.04316 | -115.27115 | 7494 ft | 255 kts | 201° |
| 2026-05-04 01:51 | 36.02654 | -115.27874 | 7897 ft | 257 kts | 200° |
| 2026-05-04 01:52 | 36.00951 | -115.28637 | 7998 ft | 260 kts | 200° |
| 2026-05-04 01:52 | 35.99249 | -115.29394 | 8117 ft | 261 kts | 198° |
| 2026-05-04 01:52 | 35.97453 | -115.29942 | 8845 ft | 270 kts | 192° |
| 2026-05-04 01:52 | 35.95620 | -115.30378 | 9989 ft | 270 kts | 192° |
| 2026-05-04 01:53 | 35.93735 | -115.30816 | 10686 ft | 284 kts | 192° |
| 2026-05-04 01:53 | 35.91691 | -115.31295 | 10913 ft | 314 kts | 192° |
| 2026-05-04 01:53 | 35.89448 | -115.31830 | 11121 ft | 341 kts | 192° |
| 2026-05-04 01:53 | 35.87090 | -115.32397 | 11611 ft | 356 kts | 192° |
| 2026-05-04 01:54 | 35.84638 | -115.32986 | 12386 ft | 361 kts | 193° |
| 2026-05-04 01:54 | 35.82174 | -115.33589 | 13351 ft | 362 kts | 191° |
| 2026-05-04 01:54 | 35.79685 | -115.34198 | 14057 ft | 368 kts | 192° |
| 2026-05-04 01:54 | 35.77165 | -115.34814 | 14868 ft | 370 kts | 192° |
| 2026-05-04 01:55 | 35.74618 | -115.35436 | 15608 ft | 374 kts | 192° |
| 2026-05-04 01:55 | 35.72059 | -115.36061 | 16416 ft | 377 kts | 192° |
| 2026-05-04 01:55 | 35.69501 | -115.36686 | 17087 ft | 382 kts | 193° |
| 2026-05-04 01:55 | 35.66878 | -115.37327 | 17776 ft | 387 kts | 193° |
| 2026-05-04 01:56 | 35.64214 | -115.37978 | 18361 ft | 392 kts | 193° |
| 2026-05-04 01:56 | 35.61619 | -115.38961 | 18927 ft | 393 kts | 208° |
| 2026-05-04 01:56 | 35.59361 | -115.40803 | 19649 ft | 388 kts | 223° |
| 2026-05-04 01:56 | 35.57491 | -115.43169 | 20449 ft | 384 kts | 229° |
| 2026-05-04 01:57 | 35.55709 | -115.45606 | 21227 ft | 382 kts | 230° |
| 2026-05-04 01:57 | 35.53951 | -115.48043 | 21896 ft | 381 kts | 231° |
| 2026-05-04 01:57 | 35.52189 | -115.50476 | 22513 ft | 382 kts | 231° |
| 2026-05-04 01:57 | 35.50419 | -115.52898 | 23135 ft | 381 kts | 231° |
| 2026-05-04 01:58 | 35.48663 | -115.55280 | 23640 ft | 382 kts | 231° |
| 2026-05-04 01:58 | 35.46870 | -115.57698 | 24022 ft | 385 kts | 231° |
| 2026-05-04 01:58 | 35.45059 | -115.60139 | 24343 ft | 389 kts | 231° |
| 2026-05-04 01:58 | 35.43231 | -115.62595 | 24733 ft | 391 kts | 231° |
| 2026-05-04 01:59 | 35.41397 | -115.65056 | 25221 ft | 390 kts | 231° |
| 2026-05-04 01:59 | 35.39572 | -115.67501 | 25734 ft | 389 kts | 231° |
| 2026-05-04 01:59 | 35.37752 | -115.69941 | 25780 ft | 386 kts | 231° |
| 2026-05-04 01:59 | 35.35963 | -115.72337 | 25813 ft | 388 kts | 231° |
| 2026-05-04 02:00 | 35.34117 | -115.74780 | 25820 ft | 394 kts | 230° |
| 2026-05-04 02:00 | 35.32145 | -115.77128 | 25819 ft | 399 kts | 227° |
| 2026-05-04 02:00 | 35.30083 | -115.79429 | 25789 ft | 402 kts | 226° |
| 2026-05-04 02:00 | 35.28000 | -115.81710 | 25799 ft | 403 kts | 226° |
| 2026-05-04 02:01 | 35.25908 | -115.84000 | 25806 ft | 404 kts | 226° |
| 2026-05-04 02:01 | 35.23819 | -115.86302 | 25807 ft | 404 kts | 226° |
| 2026-05-04 02:01 | 35.21763 | -115.88580 | 25805 ft | 405 kts | 227° |
| 2026-05-04 02:01 | 35.19685 | -115.90893 | 25790 ft | 404 kts | 227° |
| 2026-05-04 02:02 | 35.17610 | -115.93207 | 25784 ft | 403 kts | 227° |
| 2026-05-04 02:02 | 35.15540 | -115.95517 | 25795 ft | 402 kts | 227° |
| 2026-05-04 02:02 | 35.13479 | -115.97815 | 25788 ft | 401 kts | 227° |
| 2026-05-04 02:02 | 35.11424 | -116.00108 | 25794 ft | 399 kts | 227° |
| 2026-05-04 02:03 | 35.09373 | -116.02393 | 25772 ft | 399 kts | 226° |
| 2026-05-04 02:03 | 35.07324 | -116.04675 | 25772 ft | 398 kts | 226° |
| 2026-05-04 02:03 | 35.05276 | -116.06954 | 25774 ft | 398 kts | 226° |
| 2026-05-04 02:03 | 35.03261 | -116.09194 | 25777 ft | 398 kts | 226° |
| 2026-05-04 02:04 | 35.01212 | -116.11472 | 25774 ft | 398 kts | 226° |
| 2026-05-04 02:04 | 34.99173 | -116.13735 | 25742 ft | 391 kts | 226° |
| 2026-05-04 02:04 | 34.97192 | -116.15929 | 25430 ft | 382 kts | 226° |
| 2026-05-04 02:04 | 34.95244 | -116.18088 | 24877 ft | 376 kts | 226° |
| 2026-05-04 02:05 | 34.93324 | -116.20218 | 24267 ft | 370 kts | 227° |
| 2026-05-04 02:05 | 34.91679 | -116.22556 | 23824 ft | 355 kts | 238° |
| 2026-05-04 02:05 | 34.90513 | -116.25127 | 23686 ft | 342 kts | 245° |
| 2026-05-04 02:05 | 34.89514 | -116.27736 | 23617 ft | 350 kts | 245° |
| 2026-05-04 02:06 | 34.88485 | -116.30471 | 23541 ft | 360 kts | 245° |
| 2026-05-04 02:06 | 34.87433 | -116.33251 | 23448 ft | 359 kts | 244° |
| 2026-05-04 02:06 | 34.86386 | -116.35986 | 23371 ft | 356 kts | 245° |
| 2026-05-04 02:06 | 34.85335 | -116.38714 | 23282 ft | 356 kts | 245° |
| 2026-05-04 02:07 | 34.84280 | -116.41439 | 23183 ft | 355 kts | 245° |
| 2026-05-04 02:07 | 34.83226 | -116.44153 | 23105 ft | 355 kts | 245° |
| 2026-05-04 02:07 | 34.82168 | -116.46873 | 23026 ft | 355 kts | 245° |
| 2026-05-04 02:07 | 34.81110 | -116.49589 | 22932 ft | 355 kts | 245° |
| 2026-05-04 02:08 | 34.80064 | -116.52272 | 22867 ft | 356 kts | 244° |
| 2026-05-04 02:08 | 34.79036 | -116.55009 | 22788 ft | 356 kts | 249° |
| 2026-05-04 02:08 | 34.78440 | -116.57948 | 22598 ft | 362 kts | 259° |
| 2026-05-04 02:08 | 34.78161 | -116.60998 | 22411 ft | 364 kts | 261° |
| 2026-05-04 02:09 | 34.77905 | -116.64068 | 22204 ft | 365 kts | 261° |
| 2026-05-04 02:09 | 34.77631 | -116.67141 | 21999 ft | 365 kts | 261° |
| 2026-05-04 02:09 | 34.77341 | -116.70202 | 21778 ft | 364 kts | 261° |
| 2026-05-04 02:09 | 34.77045 | -116.73249 | 21587 ft | 363 kts | 261° |
| 2026-05-04 02:10 | 34.76752 | -116.76249 | 21370 ft | 360 kts | 260° |
| 2026-05-04 02:10 | 34.76458 | -116.79257 | 21182 ft | 357 kts | 260° |
| 2026-05-04 02:10 | 34.76163 | -116.82258 | 20996 ft | 359 kts | 260° |
| 2026-05-04 02:10 | 34.75864 | -116.85290 | 20779 ft | 362 kts | 260° |
| 2026-05-04 02:11 | 34.75563 | -116.88323 | 20576 ft | 360 kts | 260° |
| 2026-05-04 02:11 | 34.75264 | -116.91312 | 20362 ft | 353 kts | 260° |
| 2026-05-04 02:11 | 34.74964 | -116.94273 | 20165 ft | 354 kts | 260° |
| 2026-05-04 02:11 | 34.74661 | -116.97256 | 19962 ft | 355 kts | 260° |
| 2026-05-04 02:12 | 34.74362 | -117.00195 | 19763 ft | 355 kts | 260° |
| 2026-05-04 02:12 | 34.74060 | -117.03162 | 19568 ft | 353 kts | 260° |
| 2026-05-04 02:12 | 34.73758 | -117.06125 | 19357 ft | 353 kts | 260° |
| 2026-05-04 02:12 | 34.73456 | -117.09086 | 19149 ft | 352 kts | 260° |
| 2026-05-04 02:13 | 34.73154 | -117.12041 | 18960 ft | 352 kts | 260° |
| 2026-05-04 02:13 | 34.72850 | -117.14998 | 18754 ft | 353 kts | 260° |
| 2026-05-04 02:13 | 34.72546 | -117.17955 | 18575 ft | 353 kts | 260° |
| 2026-05-04 02:13 | 34.72240 | -117.20919 | 18430 ft | 353 kts | 260° |
| 2026-05-04 02:14 | 34.71938 | -117.23842 | 18244 ft | 352 kts | 260° |
| 2026-05-04 02:14 | 34.71633 | -117.26791 | 18024 ft | 351 kts | 260° |
| 2026-05-04 02:14 | 34.71329 | -117.29722 | 17816 ft | 350 kts | 260° |
| 2026-05-04 02:14 | 34.71024 | -117.32653 | 17610 ft | 349 kts | 260° |
| 2026-05-04 02:15 | 34.70719 | -117.35574 | 17400 ft | 348 kts | 260° |
| 2026-05-04 02:15 | 34.70414 | -117.38493 | 17208 ft | 348 kts | 260° |
| 2026-05-04 02:15 | 34.70109 | -117.41408 | 17012 ft | 349 kts | 260° |
| 2026-05-04 02:15 | 34.69800 | -117.44344 | 16807 ft | 351 kts | 260° |
| 2026-05-04 02:16 | 34.69488 | -117.47297 | 16608 ft | 354 kts | 260° |
| 2026-05-04 02:16 | 34.69178 | -117.50224 | 16412 ft | 352 kts | 260° |
| 2026-05-04 02:16 | 34.68870 | -117.53132 | 16184 ft | 340 kts | 260° |
| 2026-05-04 02:16 | 34.68575 | -117.55922 | 15989 ft | 327 kts | 260° |
| 2026-05-04 02:17 | 34.68288 | -117.58622 | 15787 ft | 319 kts | 260° |
| 2026-05-04 02:17 | 34.68003 | -117.61275 | 15616 ft | 317 kts | 259° |
| 2026-05-04 02:17 | 34.67716 | -117.63953 | 15431 ft | 323 kts | 260° |
| 2026-05-04 02:17 | 34.67426 | -117.66676 | 15252 ft | 326 kts | 259° |
| 2026-05-04 02:18 | 34.67138 | -117.69403 | 15056 ft | 325 kts | 259° |
| 2026-05-04 02:18 | 34.66854 | -117.72088 | 14859 ft | 324 kts | 259° |
| 2026-05-04 02:18 | 34.66566 | -117.74796 | 14659 ft | 324 kts | 259° |
| 2026-05-04 02:18 | 34.66278 | -117.77507 | 14498 ft | 323 kts | 259° |
| 2026-05-04 02:19 | 34.65990 | -117.80208 | 14323 ft | 323 kts | 259° |
| 2026-05-04 02:19 | 34.65700 | -117.82912 | 14136 ft | 323 kts | 259° |
| 2026-05-04 02:19 | 34.65410 | -117.85620 | 13966 ft | 323 kts | 259° |
| 2026-05-04 02:19 | 34.65119 | -117.88309 | 13667 ft | 327 kts | 259° |
| 2026-05-04 02:20 | 34.64818 | -117.91064 | 13324 ft | 328 kts | 258° |
| 2026-05-04 02:20 | 34.64518 | -117.93823 | 12982 ft | 320 kts | 258° |
| 2026-05-04 02:20 | 34.64236 | -117.96405 | 12661 ft | 311 kts | 260° |
| 2026-05-04 02:20 | 34.63955 | -117.98980 | 12358 ft | 302 kts | 259° |
| 2026-05-04 02:21 | 34.63681 | -118.01482 | 12065 ft | 294 kts | 259° |
| 2026-05-04 02:21 | 34.63414 | -118.03915 | 11778 ft | 287 kts | 258° |
| 2026-05-04 02:21 | 34.63151 | -118.06272 | 11510 ft | 280 kts | 257° |
| 2026-05-04 02:21 | 34.62750 | -118.08535 | 11277 ft | 271 kts | 253° |
| 2026-05-04 02:22 | 34.62255 | -118.10727 | 10981 ft | 267 kts | 251° |
| 2026-05-04 02:22 | 34.61745 | -118.12907 | 10724 ft | 270 kts | 252° |
| 2026-05-04 02:22 | 34.61234 | -118.15109 | 10470 ft | 272 kts | 252° |
| 2026-05-04 02:22 | 34.60724 | -118.17333 | 10202 ft | 272 kts | 251° |
| 2026-05-04 02:23 | 34.60234 | -118.19499 | 9921 ft | 268 kts | 252° |
| 2026-05-04 02:23 | 34.59749 | -118.21660 | 9639 ft | 265 kts | 252° |
| 2026-05-04 02:23 | 34.59268 | -118.23802 | 9343 ft | 261 kts | 252° |
| 2026-05-04 02:23 | 34.58800 | -118.25892 | 9093 ft | 254 kts | 253° |
| 2026-05-04 02:24 | 34.58342 | -118.27946 | 8846 ft | 250 kts | 252° |
| 2026-05-04 02:24 | 34.57894 | -118.29953 | 8622 ft | 245 kts | 253° |
| 2026-05-04 02:24 | 34.57447 | -118.31945 | 8470 ft | 245 kts | 253° |
| 2026-05-04 02:24 | 34.56995 | -118.33962 | 8301 ft | 250 kts | 253° |
| 2026-05-04 02:25 | 34.56538 | -118.35999 | 8126 ft | 249 kts | 253° |
| 2026-05-04 02:25 | 34.56094 | -118.37981 | 7975 ft | 243 kts | 254° |
| 2026-05-04 02:25 | 34.55656 | -118.39931 | 7806 ft | 236 kts | 254° |
| 2026-05-04 02:25 | 34.55225 | -118.41831 | 7614 ft | 231 kts | 253° |
| 2026-05-04 02:26 | 34.54435 | -118.43472 | 7434 ft | 227 kts | 227° |
| 2026-05-04 02:26 | 34.53219 | -118.44660 | 7278 ft | 221 kts | 216° |
| 2026-05-04 02:26 | 34.51954 | -118.45670 | 7178 ft | 215 kts | 216° |
| 2026-05-04 02:26 | 34.50703 | -118.46612 | 7182 ft | 209 kts | 217° |
| 2026-05-04 02:27 | 34.49464 | -118.47580 | 7191 ft | 219 kts | 216° |
| 2026-05-04 02:27 | 34.48166 | -118.48599 | 7135 ft | 225 kts | 216° |
| 2026-05-04 02:27 | 34.46848 | -118.49617 | 6976 ft | 223 kts | 214° |
| 2026-05-04 02:27 | 34.45586 | -118.50582 | 6900 ft | 211 kts | 216° |
| 2026-05-04 02:28 | 34.44382 | -118.51515 | 6785 ft | 199 kts | 218° |
| 2026-05-04 02:28 | 34.43242 | -118.52402 | 6672 ft | 192 kts | 218° |
| 2026-05-04 02:28 | 34.42118 | -118.53278 | 6558 ft | 195 kts | 218° |
| 2026-05-04 02:28 | 34.40960 | -118.54181 | 6470 ft | 200 kts | 213° |
| 2026-05-04 02:29 | 34.39769 | -118.55104 | 6338 ft | 204 kts | 213° |
| 2026-05-04 02:29 | 34.38581 | -118.56024 | 6194 ft | 202 kts | 213° |
| 2026-05-04 02:29 | 34.37398 | -118.56937 | 6080 ft | 203 kts | 211° |
| 2026-05-04 02:29 | 34.36057 | -118.57389 | 5988 ft | 200 kts | 182° |
| 2026-05-04 02:30 | 34.34649 | -118.57356 | 5592 ft | 211 kts | 180° |
| 2026-05-04 02:30 | 34.33133 | -118.57303 | 4886 ft | 221 kts | 177° |
| 2026-05-04 02:30 | 34.31640 | -118.57247 | 4628 ft | 210 kts | 178° |
| 2026-05-04 02:30 | 34.30248 | -118.57195 | 4474 ft | 197 kts | 179° |
| 2026-05-04 02:31 | 34.28936 | -118.57142 | 4338 ft | 183 kts | 179° |
| 2026-05-04 02:31 | 34.27718 | -118.57051 | 4224 ft | 170 kts | 177° |
| 2026-05-04 02:31 | 34.26543 | -118.56958 | 4147 ft | 172 kts | 178° |
| 2026-05-04 02:31 | 34.25319 | -118.56863 | 4023 ft | 177 kts | 178° |
| 2026-05-04 02:32 | 34.24082 | -118.56759 | 3932 ft | 179 kts | 177° |
| 2026-05-04 02:32 | 34.22858 | -118.56475 | 3842 ft | 183 kts | 162° |
| 2026-05-04 02:32 | 34.21768 | -118.55731 | 3741 ft | 181 kts | 144° |
| 2026-05-04 02:32 | 34.20919 | -118.54662 | 3566 ft | 172 kts | 131° |
| 2026-05-04 02:33 | 34.20315 | -118.53440 | 3388 ft | 169 kts | 117° |
| 2026-05-04 02:33 | 34.20073 | -118.52041 | 3193 ft | 175 kts | 102° |
| 2026-05-04 02:33 | 34.19988 | -118.50552 | 2940 ft | 177 kts | 96° |
| 2026-05-04 02:33 | 34.19963 | -118.49152 | 2730 ft | 158 kts | 93° |
| 2026-05-04 02:34 | 34.19946 | -118.47892 | 2523 ft | 147 kts | 92° |
| 2026-05-04 02:34 | 34.19929 | -118.46690 | 2327 ft | 141 kts | 93° |
| 2026-05-04 02:34 | 34.19912 | -118.45501 | 2151 ft | 143 kts | 92° |
| 2026-05-04 02:34 | 34.19895 | -118.44294 | 1961 ft | 146 kts | 94° |
| 2026-05-04 02:35 | 34.19877 | -118.43069 | 1770 ft | 146 kts | 94° |
| 2026-05-04 02:35 | 34.19861 | -118.41858 | 1590 ft | 141 kts | 94° |
| 2026-05-04 02:35 | 34.19845 | -118.40695 | 1418 ft | 137 kts | 97° |
| 2026-05-04 02:35 | 34.19829 | -118.39535 | 1240 ft | 137 kts | 95° |
| 2026-05-04 02:36 | 34.19819 | -118.38374 | 1031 ft | 141 kts | 93° |
| 2026-05-04 02:36 | 34.19799 | -118.37199 | 822 ft | 139 kts | 94° |
| 2026-05-04 02:36 | 34.19781 | -118.36075 | 704 ft | 122 kts | 90° |
| 2026-05-04 02:36 | 34.19770 | -118.35274 | 694 ft | 51 kts | 91° |
| 2026-05-04 02:37 | 34.19797 | -118.35093 | 695 ft | 13 kts | 30° |
| 2026-05-04 02:37 | 34.19870 | -118.35104 | 692 ft | 9 kts | 306° |
| 2026-05-04 02:37 | 34.19865 | -118.35169 | 693 ft | 6 kts | 234° |
| 2026-05-04 02:37 | 34.19844 | -118.35196 | 696 ft | 4 kts | 225° |
| 2026-05-04 02:38 | 34.19813 | -118.35228 | 693 ft | 7 kts | 210° |
| 2026-05-04 02:38 | 34.19765 | -118.35221 | 692 ft | 8 kts | 142° |
| 2026-05-04 02:38 | 34.19731 | -118.35172 | 695 ft | 8 kts | 119° |
| 2026-05-04 02:38 | 34.19718 | -118.35108 | 692 ft | 8 kts | 92° |
| 2026-05-04 02:39 | 34.19712 | -118.35065 | 688 ft | 2 kts | 134° |
| 2026-05-04 02:39 | 34.19696 | -118.35060 | 694 ft | 2 kts | 175° |
| 2026-05-04 02:39 | 34.19680 | -118.35061 | 690 ft | 2 kts | 182° |
| 2026-05-04 02:39 | 34.19673 | -118.35061 | 690 ft | 0 kts | 181° |